Time;durP1;ratioP1;P1;durP2;ratioP2;P2;SDS_P1;SDS_P2;PMS_P1;PMS_P2;Temp;Humidity;BMP_temperature;BMP_pressure;BME280_temperature;BME280_humidity;BME280_pressure;Samples;Min_cycle;Max_cycle;Signal;HPM_P1;HPM_P2
2023/05/28 00:00:08;;;;;;;4.20;3.60;;;23.10;44.30;24.00;101172.00;;;;5010008;28;20207;-48
2023/05/28 00:02:34;;;;;;;4.33;3.93;;;23.10;44.40;24.00;101175.00;;;;5009927;28;20172;-49
2023/05/28 00:05:00;;;;;;;4.37;3.97;;;23.10;44.40;24.00;101167.00;;;;5009453;28;20716;-49
2023/05/28 00:07:28;;;;;;;4.27;3.87;;;23.10;44.50;23.90;101168.00;;;;5009124;28;20626;-49
2023/05/28 00:09:55;;;;;;;4.10;3.70;;;23.10;44.50;24.00;101184.00;;;;5009881;28;20278;-49
2023/05/28 00:12:21;;;;;;;4.80;4.30;;;23.10;44.60;24.00;101182.00;;;;5009990;28;20172;-49
2023/05/28 00:14:47;;;;;;;4.17;3.77;;;23.10;44.60;23.90;101185.00;;;;5009384;28;20296;-49
2023/05/28 00:17:15;;;;;;;4.23;3.77;;;23.10;44.60;23.90;101175.00;;;;5009179;28;20184;-49
2023/05/28 00:19:41;;;;;;;4.47;4.07;;;23.10;44.70;23.90;101169.00;;;;5009762;28;20208;-49
2023/05/28 00:22:07;;;;;;;4.77;3.70;;;23.10;44.80;23.90;101168.00;;;;5008145;28;20186;-49
2023/05/28 00:24:33;;;;;;;4.80;4.00;;;23.00;44.70;23.90;101162.00;;;;5009086;28;20622;-49
2023/05/28 00:26:58;;;;;;;4.97;4.40;;;23.00;44.70;23.90;101166.00;;;;5008826;28;20217;-49
2023/05/28 00:29:26;;;;;;;4.37;3.93;;;23.00;44.70;23.80;101157.00;;;;5009535;28;20195;-49
2023/05/28 00:31:55;;;;;;;4.20;3.80;;;23.00;44.80;23.80;101167.00;;;;5008485;28;20179;-49
2023/05/28 00:34:24;;;;;;;4.90;4.40;;;23.00;44.90;23.80;101165.00;;;;5008942;28;20282;-49
2023/05/28 00:36:50;;;;;;;4.40;4.00;;;23.00;45.00;23.80;101171.00;;;;5008469;28;20293;-50
2023/05/28 00:39:17;;;;;;;6.27;4.37;;;23.00;45.00;23.80;101161.00;;;;4993616;28;20204;-50
2023/05/28 00:41:44;;;;;;;4.57;4.13;;;23.00;45.00;23.70;101157.00;;;;5003947;28;20308;-49
2023/05/28 00:44:10;;;;;;;4.50;4.00;;;23.00;45.10;23.80;101155.00;;;;5008006;28;20211;-49
2023/05/28 00:46:37;;;;;;;5.53;4.30;;;23.00;45.10;23.70;101155.00;;;;5009073;28;20597;-49
2023/05/28 00:49:03;;;;;;;4.60;3.87;;;23.00;45.10;23.70;101164.00;;;;4991420;28;20302;-49
2023/05/28 00:51:29;;;;;;;4.87;4.37;;;22.90;45.00;23.70;101166.00;;;;5007721;28;20262;-49
2023/05/28 00:53:55;;;;;;;5.23;4.70;;;22.90;45.00;23.70;101161.00;;;;5007753;28;20190;-49
2023/05/28 00:56:22;;;;;;;7.37;5.60;;;22.90;45.10;23.70;101153.00;;;;5009695;28;20180;-49
2023/05/28 00:58:48;;;;;;;6.80;5.90;;;22.90;45.10;23.50;101162.00;;;;5009778;28;20211;-49
2023/05/28 01:01:14;;;;;;;8.37;6.20;;;22.80;45.10;23.70;101158.00;;;;5008169;28;20245;-49
2023/05/28 01:03:40;;;;;;;7.67;5.87;;;22.90;45.20;23.60;101157.00;;;;5008113;28;20670;-49
2023/05/28 01:06:09;;;;;;;7.20;6.00;;;22.80;45.10;23.60;101161.00;;;;5010816;28;20199;-49
2023/05/28 01:08:37;;;;;;;7.77;6.67;;;22.80;45.10;23.60;101154.00;;;;5017025;28;20682;-50
2023/05/28 01:11:03;;;;;;;8.43;6.67;;;22.80;45.10;23.60;101153.00;;;;5008569;28;20182;-50
2023/05/28 01:13:29;;;;;;;8.17;6.27;;;22.80;45.20;23.60;101144.00;;;;5008247;28;20180;-50
2023/05/28 01:15:55;;;;;;;8.57;6.33;;;22.80;45.10;23.60;101143.00;;;;5008118;28;20195;-50
2023/05/28 01:18:20;;;;;;;7.50;6.53;;;22.80;45.70;23.50;101150.00;;;;5007929;28;20538;-50
2023/05/28 01:20:46;;;;;;;8.00;6.07;;;22.70;45.10;23.50;101154.00;;;;5018368;28;20196;-56
2023/05/28 01:23:12;;;;;;;8.00;6.00;;;22.70;45.10;23.50;101153.00;;;;5012403;28;20207;-50
2023/05/28 01:25:38;;;;;;;8.07;6.27;;;22.70;45.10;23.50;101146.00;;;;5008956;28;20210;-50
2023/05/28 01:28:12;;;;;;;8.20;6.60;;;22.70;45.10;23.50;101153.00;;;;5008981;28;20208;-50
2023/05/28 01:30:38;;;;;;;8.03;6.57;;;22.70;45.20;23.50;101152.00;;;;5009120;28;20178;-50
2023/05/28 01:33:05;;;;;;;6.97;6.10;;;22.70;45.20;23.20;101026.00;;;;5008338;28;20514;-50
2023/05/28 01:35:30;;;;;;;6.97;5.70;;;22.70;45.30;23.50;101153.00;;;;5007311;28;20681;-50
2023/05/28 01:37:59;;;;;;;8.43;6.40;;;22.70;45.30;23.40;101148.00;;;;5007445;28;20273;-50
2023/05/28 01:40:24;;;;;;;7.27;6.00;;;22.70;45.30;23.40;101142.00;;;;5007441;28;20203;-50
2023/05/28 01:42:50;;;;;;;6.87;5.60;;;22.70;45.40;23.40;101154.00;;;;4990975;28;20203;-50
2023/05/28 01:45:16;;;;;;;7.07;6.10;;;22.70;45.30;23.40;101141.00;;;;4990863;28;20199;-50
2023/05/28 01:47:42;;;;;;;5.97;5.37;;;22.60;45.30;23.40;101151.00;;;;4990964;28;20190;-50
2023/05/28 01:50:08;;;;;;;5.50;4.87;;;22.60;45.20;23.40;101120.00;;;;5007242;28;20246;-49
2023/05/28 01:52:33;;;;;;;7.17;5.40;;;22.60;45.20;23.30;101155.00;;;;4991313;28;20188;-50
2023/05/28 01:54:59;;;;;;;5.43;4.90;;;22.60;45.20;23.30;101143.00;;;;5008708;28;20198;-48
2023/05/28 01:57:25;;;;;;;6.33;4.63;;;22.60;45.20;23.30;101142.00;;;;5008643;28;20197;-49
2023/05/28 01:59:51;;;;;;;5.93;5.13;;;22.50;44.90;23.30;101138.00;;;;5008587;28;20681;-49
2023/05/28 02:02:16;;;;;;;5.47;4.80;;;22.50;45.00;23.30;101141.00;;;;5008737;28;20230;-49
2023/05/28 02:04:42;;;;;;;5.63;4.50;;;22.50;45.00;23.20;101135.00;;;;5007052;28;20211;-49
2023/05/28 02:07:08;;;;;;;5.00;4.30;;;22.50;45.00;23.20;101133.00;;;;5008372;28;20642;-49
2023/05/28 02:09:33;;;;;;;6.67;4.77;;;22.50;45.00;23.20;101135.00;;;;5008389;28;20206;-49
2023/05/28 02:12:02;;;;;;;5.10;4.40;;;22.50;45.10;23.10;101096.00;;;;5008291;28;20190;-48
2023/05/28 02:14:29;;;;;;;5.23;4.73;;;22.50;45.10;23.10;101126.00;;;;5008118;28;20187;-49
2023/05/28 02:16:55;;;;;;;5.10;4.50;;;22.50;45.10;23.10;101129.00;;;;5008101;28;20187;-49
2023/05/28 02:19:21;;;;;;;5.07;4.37;;;22.50;45.10;23.10;101127.00;;;;5008047;28;20282;-48
2023/05/28 02:21:46;;;;;;;5.43;4.50;;;22.50;45.20;23.10;101119.00;;;;5008305;28;20639;-50
2023/05/28 02:24:12;;;;;;;6.50;4.60;;;22.40;45.30;23.00;101121.00;;;;5007973;28;20211;-48
2023/05/28 02:26:38;;;;;;;4.53;4.13;;;22.40;45.30;23.00;101124.00;;;;5006827;28;20183;-49
2023/05/28 02:29:03;;;;;;;4.60;4.17;;;22.40;45.40;23.00;101125.00;;;;5008146;28;20208;-50
2023/05/28 02:31:29;;;;;;;5.03;4.20;;;22.30;45.30;23.00;101126.00;;;;5008019;28;20183;-49
2023/05/28 02:33:55;;;;;;;5.73;4.47;;;22.40;45.40;23.00;101126.00;;;;5008256;28;20211;-50
2023/05/28 02:36:21;;;;;;;4.50;4.10;;;22.40;45.50;23.00;101119.00;;;;5008148;28;20212;-50
2023/05/28 02:38:46;;;;;;;5.47;4.70;;;22.30;45.50;22.90;101115.00;;;;5007983;28;20214;-49
2023/05/28 02:41:12;;;;;;;5.20;4.60;;;22.30;45.40;22.90;101119.00;;;;5007898;28;20188;-50
2023/05/28 02:43:38;;;;;;;4.33;3.93;;;22.30;45.40;22.90;101116.00;;;;5007593;28;20721;-50
2023/05/28 02:46:04;;;;;;;4.70;4.20;;;22.30;45.40;22.80;101126.00;;;;5011565;28;20657;-50
2023/05/28 02:48:30;;;;;;;5.03;4.53;;;22.30;45.40;22.80;101124.00;;;;5010254;28;20214;-49
2023/05/28 02:50:56;;;;;;;4.70;4.30;;;22.30;45.50;22.80;101123.00;;;;5011926;28;20209;-50
2023/05/28 02:53:22;;;;;;;4.90;4.20;;;22.20;45.30;22.80;101133.00;;;;5011897;28;20610;-49
2023/05/28 02:55:48;;;;;;;4.80;3.90;;;22.20;45.30;22.80;101124.00;;;;5011854;28;20187;-49
2023/05/28 02:58:14;;;;;;;4.40;4.00;;;22.20;45.30;22.70;101122.00;;;;5011634;28;20400;-50
2023/05/28 03:00:40;;;;;;;4.93;4.40;;;22.20;45.30;22.70;101122.00;;;;5010732;28;20179;-48
2023/05/28 03:03:06;;;;;;;4.40;4.00;;;22.20;45.30;22.70;101125.00;;;;5011868;28;20835;-48
2023/05/28 03:05:32;;;;;;;4.70;3.60;;;22.20;45.30;22.70;101123.00;;;;5011997;28;20180;-48
2023/05/28 03:08:01;;;;;;;4.10;3.70;;;22.10;45.30;22.70;101103.00;;;;5012134;28;20286;-49
2023/05/28 03:10:27;;;;;;;4.17;3.50;;;22.10;45.30;22.60;101128.00;;;;5016360;28;20180;-48
2023/05/28 03:12:52;;;;;;;4.57;3.70;;;22.10;45.30;22.60;101127.00;;;;5011824;28;20238;-49
2023/05/28 03:15:18;;;;;;;4.30;3.90;;;22.10;45.30;22.60;101137.00;;;;5010407;28;20179;-49
2023/05/28 03:17:44;;;;;;;4.00;3.60;;;22.10;45.30;22.60;101119.00;;;;5011482;28;20198;-49
2023/05/28 03:20:11;;;;;;;4.60;4.07;;;22.00;45.20;22.50;101129.00;;;;5014765;28;20197;-48
2023/05/28 03:22:37;;;;;;;5.53;4.20;;;22.00;45.20;22.50;101124.00;;;;5012719;28;20526;-51
2023/05/28 03:25:04;;;;;;;5.30;4.20;;;22.10;45.40;22.50;101120.00;;;;5016486;28;20190;-49
2023/05/28 03:27:30;;;;;;;4.40;3.93;;;22.00;45.30;22.50;101119.00;;;;5011293;28;20180;-49
2023/05/28 03:29:56;;;;;;;5.00;3.73;;;22.00;45.60;22.50;101130.00;;;;5011323;28;20226;-49
2023/05/28 03:32:21;;;;;;;8.03;4.03;;;22.00;45.60;22.40;101135.00;;;;5011251;28;20175;-48
2023/05/28 03:34:47;;;;;;;5.10;3.80;;;22.00;45.60;22.40;101122.00;;;;5011228;28;20910;-48
2023/05/28 03:37:13;;;;;;;4.77;3.90;;;22.00;45.70;22.40;101120.00;;;;5011097;28;20681;-49
2023/05/28 03:39:39;;;;;;;4.67;3.93;;;22.00;45.60;22.40;101127.00;;;;5011072;28;20200;-50
2023/05/28 03:42:05;;;;;;;4.50;3.90;;;21.90;45.70;22.30;101125.00;;;;5010974;28;20250;-50
2023/05/28 03:44:31;;;;;;;6.03;3.70;;;21.90;45.70;22.30;101123.00;;;;5011038;28;20728;-48
2023/05/28 03:46:57;;;;;;;5.33;3.90;;;21.90;45.80;22.30;101116.00;;;;5011204;28;20254;-50
2023/05/28 03:49:23;;;;;;;4.50;4.10;;;21.90;45.80;22.30;101111.00;;;;5011222;28;20277;-50
2023/05/28 03:51:48;;;;;;;7.23;4.40;;;21.90;45.80;22.20;101117.00;;;;5011080;28;20258;-50
2023/05/28 03:54:14;;;;;;;4.40;4.00;;;21.90;45.90;22.20;101126.00;;;;5003693;28;20190;-50
2023/05/28 03:56:40;;;;;;;5.13;4.07;;;21.80;45.80;22.20;101113.00;;;;5009990;28;20262;-50
2023/05/28 03:59:06;;;;;;;4.40;4.00;;;21.80;45.80;22.20;100989.00;;;;5009934;28;20206;-49
2023/05/28 04:01:34;;;;;;;4.30;3.90;;;21.80;45.80;22.20;101121.00;;;;5010231;28;20206;-49
2023/05/28 04:03:59;;;;;;;4.30;3.90;;;21.80;45.80;22.10;101118.00;;;;5010147;28;20199;-50
2023/05/28 04:06:25;;;;;;;4.10;3.70;;;21.80;45.90;22.10;101116.00;;;;5010284;28;20267;-48
2023/05/28 04:08:52;;;;;;;4.63;4.13;;;21.80;45.90;22.10;101117.00;;;;5008074;28;20203;-48
2023/05/28 04:11:18;;;;;;;5.63;4.00;;;21.80;45.90;22.10;101129.00;;;;5002483;28;20175;-48
2023/05/28 04:13:43;;;;;;;4.87;3.90;;;21.70;46.00;22.00;101111.00;;;;5009809;28;20194;-48
2023/05/28 04:16:09;;;;;;;4.37;3.87;;;21.70;46.10;22.00;101120.00;;;;5009781;28;20183;-48
2023/05/28 04:18:35;;;;;;;4.20;3.80;;;21.60;46.10;22.00;101113.00;;;;5009818;28;20200;-48
2023/05/28 04:21:01;;;;;;;4.83;3.77;;;21.60;46.10;22.00;101121.00;;;;5009910;28;20258;-48
2023/05/28 04:23:26;;;;;;;4.40;3.63;;;21.60;46.80;22.00;101119.00;;;;5009103;28;20273;-48
2023/05/28 04:25:53;;;;;;;4.97;3.83;;;21.50;46.20;21.90;101119.00;;;;5007873;28;20207;-49
2023/05/28 04:28:19;;;;;;;4.30;3.87;;;21.60;46.30;21.90;101127.00;;;;5007648;28;20198;-48
2023/05/28 04:30:45;;;;;;;4.47;3.77;;;21.50;46.30;21.90;101107.00;;;;5009532;28;20661;-49
2023/05/28 04:33:11;;;;;;;3.93;3.63;;;21.50;46.30;21.90;101131.00;;;;5008082;28;20245;-49
2023/05/28 04:35:36;;;;;;;4.53;3.60;;;21.50;46.40;21.90;101129.00;;;;5009277;28;20226;-49
2023/05/28 04:38:02;;;;;;;5.17;3.70;;;21.50;46.40;21.90;101135.00;;;;5008479;28;20243;-49
2023/05/28 04:40:28;;;;;;;3.80;3.47;;;21.40;46.30;21.80;101131.00;;;;5009213;28;20186;-49
2023/05/28 04:42:55;;;;;;;3.73;3.37;;;21.40;46.40;21.80;101134.00;;;;5009471;28;20234;-49
2023/05/28 04:45:21;;;;;;;4.10;3.70;;;21.40;46.50;21.80;101136.00;;;;5009138;28;20195;-49
2023/05/28 04:47:50;;;;;;;4.03;3.63;;;21.40;46.60;21.80;101133.00;;;;5008887;28;20178;-49
2023/05/28 04:50:16;;;;;;;4.10;3.77;;;21.40;46.70;21.80;101142.00;;;;5009384;28;20198;-48
2023/05/28 04:52:41;;;;;;;4.37;3.97;;;21.30;46.70;21.80;101156.00;;;;5010732;28;20256;-49
2023/05/28 04:55:07;;;;;;;4.53;3.60;;;21.30;46.90;21.70;101141.00;;;;5006566;28;20183;-49
2023/05/28 04:57:33;;;;;;;4.50;3.80;;;21.30;46.90;21.70;101151.00;;;;5008245;28;20182;-49
2023/05/28 04:59:59;;;;;;;4.17;3.77;;;21.20;47.50;21.70;101153.00;;;;5008810;28;20676;-49
2023/05/28 05:02:25;;;;;;;4.10;3.70;;;21.20;47.00;21.70;101153.00;;;;5016697;28;20179;-49
2023/05/28 05:04:51;;;;;;;4.17;3.60;;;21.30;47.30;21.70;101153.00;;;;5013388;28;20213;-49
2023/05/28 05:07:16;;;;;;;5.13;3.80;;;21.10;47.20;21.60;101161.00;;;;5007689;28;20178;-48
2023/05/28 05:09:42;;;;;;;4.50;4.03;;;21.10;47.60;21.70;101167.00;;;;5011561;28;20949;-50
2023/05/28 05:12:08;;;;;;;9.63;3.90;;;21.20;47.90;21.60;101177.00;;;;5012359;28;20253;-49
2023/05/28 05:14:34;;;;;;;5.43;4.10;;;21.10;48.00;21.60;101162.00;;;;5014989;28;20562;-48
2023/05/28 05:17:02;;;;;;;5.03;4.10;;;21.00;47.70;21.60;101158.00;;;;5009481;28;20292;-49
2023/05/28 05:19:28;;;;;;;6.03;4.47;;;21.00;47.90;21.60;101170.00;;;;5009926;28;20213;-49
2023/05/28 05:21:53;;;;;;;8.03;4.17;;;21.00;48.00;21.60;101165.00;;;;5009213;28;20262;-48
2023/05/28 05:24:19;;;;;;;6.57;4.33;;;21.00;47.80;21.60;101163.00;;;;5010549;28;20700;-48
2023/05/28 05:26:45;;;;;;;6.60;4.33;;;21.00;48.00;21.60;101167.00;;;;5011911;28;20188;-49
2023/05/28 05:29:11;;;;;;;5.87;3.90;;;21.00;48.00;21.50;101165.00;;;;5008839;28;20247;-48
2023/05/28 05:31:36;;;;;;;4.93;4.37;;;20.90;48.00;21.50;101177.00;;;;5009665;28;20606;-48
2023/05/28 05:34:02;;;;;;;4.83;3.97;;;20.90;48.10;21.50;101166.00;;;;5009548;28;20194;-49
2023/05/28 05:36:28;;;;;;;4.23;3.83;;;20.90;48.10;21.50;101169.00;;;;5008785;28;20186;-49
2023/05/28 05:38:54;;;;;;;6.27;4.27;;;20.90;48.10;21.50;101179.00;;;;5007447;28;20218;-49
2023/05/28 05:41:21;;;;;;;5.03;3.90;;;20.90;48.20;21.50;101178.00;;;;5008284;28;20203;-49
2023/05/28 05:43:46;;;;;;;4.47;3.80;;;20.90;48.20;21.50;101177.00;;;;5008170;28;20223;-49
2023/05/28 05:46:12;;;;;;;3.87;3.57;;;20.90;48.20;21.50;101169.00;;;;5008618;28;20813;-49
2023/05/28 05:48:38;;;;;;;5.83;4.27;;;20.90;48.10;21.50;101170.00;;;;5008696;28;20341;-49
2023/05/28 05:51:04;;;;;;;5.20;3.80;;;20.90;48.20;21.50;101173.00;;;;4994861;28;20241;-49
2023/05/28 05:53:29;;;;;;;5.30;4.10;;;20.90;48.20;21.50;101178.00;;;;5006531;28;20214;-49
2023/05/28 05:55:55;;;;;;;4.40;3.57;;;20.90;48.20;21.50;101167.00;;;;5004119;28;20662;-49
2023/05/28 05:58:21;;;;;;;4.03;3.70;;;20.90;48.20;21.50;101169.00;;;;4994362;28;20220;-49
2023/05/28 06:00:50;;;;;;;4.03;3.63;;;20.90;48.20;21.50;101168.00;;;;5003943;28;20186;-49
2023/05/28 06:03:16;;;;;;;4.20;3.70;;;20.90;48.20;21.50;101161.00;;;;5001913;28;20708;-49
2023/05/28 06:05:42;;;;;;;4.20;3.80;;;20.90;48.20;21.50;101158.00;;;;5007344;28;20211;-49
2023/05/28 06:08:07;;;;;;;4.00;3.60;;;20.90;48.20;21.50;101152.00;;;;5008456;28;20203;-50
2023/05/28 06:10:33;;;;;;;4.10;3.70;;;20.90;48.20;21.50;101167.00;;;;5012375;28;20593;-50
2023/05/28 06:13:02;;;;;;;4.40;3.90;;;20.90;48.20;21.50;101163.00;;;;5010836;28;20684;-49
2023/05/28 06:15:28;;;;;;;4.50;3.80;;;21.00;48.20;21.50;101163.00;;;;4991847;28;20619;-49
2023/05/28 06:17:55;;;;;;;3.90;3.60;;;21.00;48.30;21.50;101173.00;;;;5008417;28;20297;-49
2023/05/28 06:20:21;;;;;;;5.23;4.00;;;20.90;48.50;21.40;101159.00;;;;5006921;28;20190;-49
2023/05/28 06:22:47;;;;;;;4.07;3.77;;;20.90;48.50;21.50;101159.00;;;;5016682;28;20233;-49
2023/05/28 06:25:14;;;;;;;4.20;3.80;;;20.90;48.50;21.50;101165.00;;;;5002968;28;20201;-49
2023/05/28 06:27:40;;;;;;;4.33;3.93;;;20.90;48.50;21.40;101165.00;;;;5008753;28;20273;-49
2023/05/28 06:30:07;;;;;;;4.40;3.70;;;20.90;48.50;21.40;101164.00;;;;5012102;28;20204;-48
2023/05/28 06:32:33;;;;;;;4.20;3.80;;;20.90;48.60;21.40;101166.00;;;;5007725;28;20174;-49
2023/05/28 06:35:00;;;;;;;4.17;3.77;;;20.90;48.50;21.40;101160.00;;;;5008210;28;20663;-48
2023/05/28 06:37:26;;;;;;;5.10;3.50;;;20.90;48.60;21.40;101170.00;;;;5007355;28;20177;-50
2023/05/28 06:39:52;;;;;;;4.23;3.83;;;20.90;48.70;21.40;101159.00;;;;5008359;28;20283;-49
2023/05/28 06:42:18;;;;;;;4.47;4.07;;;20.80;48.80;21.40;101156.00;;;;5009598;28;20542;-50
2023/05/28 06:44:44;;;;;;;4.23;3.83;;;20.80;48.90;21.40;101160.00;;;;5007943;28;20204;-49
2023/05/28 06:47:10;;;;;;;4.10;3.80;;;20.90;48.90;21.40;101156.00;;;;5007772;28;20176;-49
2023/05/28 06:49:36;;;;;;;3.77;3.47;;;20.90;48.90;21.40;101153.00;;;;5007756;28;20215;-49
2023/05/28 06:52:02;;;;;;;4.00;3.60;;;20.90;48.80;21.40;101153.00;;;;5008670;28;20258;-49
2023/05/28 06:54:27;;;;;;;3.93;3.60;;;20.90;49.00;21.40;101159.00;;;;5007377;28;20180;-49
2023/05/28 06:56:53;;;;;;;4.10;3.70;;;20.90;49.10;21.40;101157.00;;;;5007027;28;20687;-50
2023/05/28 06:59:19;;;;;;;3.73;3.43;;;20.90;49.10;21.40;101164.00;;;;5001070;28;20245;-50
2023/05/28 07:01:45;;;;;;;4.13;3.60;;;20.90;49.20;21.40;101159.00;;;;4986560;28;20704;-49
2023/05/28 07:04:11;;;;;;;3.80;3.50;;;20.90;49.20;21.40;101162.00;;;;5004263;28;20244;-49
2023/05/28 07:06:37;;;;;;;4.47;4.03;;;20.90;49.20;21.40;101161.00;;;;5009211;28;20181;-49
2023/05/28 07:09:02;;;;;;;4.80;3.67;;;20.90;49.30;21.40;101142.00;;;;5008969;28;20509;-49
2023/05/28 07:11:28;;;;;;;4.10;3.80;;;21.00;49.40;21.40;101166.00;;;;5009173;28;20185;-49
2023/05/28 07:13:54;;;;;;;4.40;3.77;;;20.90;49.40;21.40;101161.00;;;;5011201;28;20610;-49
2023/05/28 07:16:21;;;;;;;4.87;3.80;;;20.90;49.50;21.40;101162.00;;;;5008621;28;20219;-49
2023/05/28 07:18:47;;;;;;;4.67;3.70;;;20.90;50.20;21.40;101161.00;;;;4991425;28;20767;-48
2023/05/28 07:21:13;;;;;;;4.60;3.80;;;20.90;49.40;21.40;101159.00;;;;5009487;28;20182;-49
2023/05/28 07:23:39;;;;;;;4.00;3.70;;;20.90;49.20;21.40;101151.00;;;;4994618;28;20677;-50
2023/05/28 07:26:04;;;;;;;4.67;3.77;;;20.90;49.10;21.40;101164.00;;;;5008601;28;20181;-49
2023/05/28 07:28:31;;;;;;;3.97;3.57;;;20.90;49.20;21.40;101174.00;;;;5010481;28;20655;-49
2023/05/28 07:30:56;;;;;;;4.70;3.50;;;20.90;49.20;21.40;101178.00;;;;5009262;28;20178;-49
2023/05/28 07:33:22;;;;;;;5.27;3.93;;;20.90;49.20;21.40;101170.00;;;;5011585;28;20546;-48
2023/05/28 07:35:48;;;;;;;3.83;3.50;;;20.90;49.10;21.40;101168.00;;;;5011269;28;20188;-49
2023/05/28 07:38:14;;;;;;;4.17;3.70;;;20.90;49.00;21.40;101166.00;;;;5010363;28;20294;-49
2023/05/28 07:40:41;;;;;;;4.20;3.80;;;20.90;49.60;21.40;101162.00;;;;5014489;28;20237;-49
2023/05/28 07:43:07;;;;;;;4.50;3.97;;;20.90;49.10;21.50;101164.00;;;;5012771;28;20756;-50
2023/05/28 07:45:32;;;;;;;4.50;3.73;;;20.90;49.20;21.50;101165.00;;;;5010643;28;20214;-49
2023/05/28 07:47:58;;;;;;;5.07;4.03;;;20.90;49.20;21.50;101170.00;;;;5010473;28;20280;-49
2023/05/28 07:50:24;;;;;;;4.97;3.73;;;20.90;49.40;21.50;101174.00;;;;5011317;28;20321;-49
2023/05/28 07:52:50;;;;;;;5.00;3.80;;;20.90;49.50;21.30;101172.00;;;;5009403;28;20506;-48
2023/05/28 07:55:16;;;;;;;4.87;3.90;;;20.90;49.70;21.50;101177.00;;;;5010781;28;20283;-48
2023/05/28 07:57:42;;;;;;;5.20;4.03;;;20.90;49.70;21.50;101167.00;;;;5005200;28;20690;-50
2023/05/28 08:00:15;;;;;;;5.33;4.13;;;20.90;49.70;21.50;101108.00;;;;5004427;28;20231;-48
2023/05/28 08:02:44;;;;;;;5.57;4.20;;;20.90;49.90;21.50;101161.00;;;;5010329;28;20543;-50
2023/05/28 08:05:10;;;;;;;5.43;4.00;;;20.90;49.90;21.50;101163.00;;;;5017934;28;20183;-48
2023/05/28 08:07:35;;;;;;;6.20;4.20;;;20.90;50.00;21.50;101158.00;;;;5010443;28;20320;-47
2023/05/28 08:10:02;;;;;;;4.30;3.90;;;20.90;50.10;21.50;101155.00;;;;5010772;28;20266;-49
2023/05/28 08:12:28;;;;;;;5.63;3.80;;;20.90;50.30;21.50;101152.00;;;;5010248;28;20691;-48
2023/05/28 08:14:53;;;;;;;4.27;3.80;;;20.90;50.20;21.50;101151.00;;;;5009460;28;20173;-49
2023/05/28 08:17:21;;;;;;;8.77;4.20;;;20.90;49.90;21.50;101141.00;;;;5010094;28;20184;-49
2023/05/28 08:19:47;;;;;;;4.40;4.00;;;20.90;49.90;21.50;101142.00;;;;5011589;28;20293;-48
2023/05/28 08:22:13;;;;;;;5.07;3.97;;;20.90;49.90;21.50;101136.00;;;;5010994;28;20177;-49
2023/05/28 08:24:38;;;;;;;4.47;3.80;;;20.90;49.80;21.50;101141.00;;;;5011574;28;20207;-50
2023/05/28 08:27:05;;;;;;;4.27;3.87;;;20.90;49.60;21.50;101148.00;;;;5011508;28;20615;-48
2023/05/28 08:29:31;;;;;;;4.77;3.60;;;21.00;49.60;21.50;101139.00;;;;5011387;28;20201;-48
2023/05/28 08:31:57;;;;;;;4.07;3.47;;;20.90;49.20;21.50;101130.00;;;;5011637;28;20530;-48
2023/05/28 08:34:23;;;;;;;4.30;3.90;;;20.90;49.20;21.60;101121.00;;;;5014898;28;20185;-50
2023/05/28 08:36:49;;;;;;;4.60;3.70;;;20.90;49.50;21.60;101127.00;;;;5013452;28;20258;-50
2023/05/28 08:39:16;;;;;;;4.57;4.00;;;20.90;49.50;21.60;101119.00;;;;5011302;28;20257;-50
2023/05/28 08:41:43;;;;;;;4.20;3.80;;;20.90;48.90;21.60;101126.00;;;;5010865;28;20189;-48
2023/05/28 08:44:09;;;;;;;4.17;3.67;;;20.90;48.90;21.60;101121.00;;;;5010828;28;20252;-48
2023/05/28 08:46:35;;;;;;;4.50;4.07;;;20.90;49.10;21.60;101124.00;;;;5011315;28;20606;-49
2023/05/28 08:49:00;;;;;;;5.57;3.60;;;20.90;48.80;21.60;101120.00;;;;4993510;28;20224;-49
2023/05/28 08:51:26;;;;;;;4.40;3.77;;;20.90;47.80;21.60;101117.00;;;;5008983;28;20247;-49
2023/05/28 08:53:52;;;;;;;4.23;3.60;;;20.90;46.70;21.60;101105.00;;;;4992695;28;20264;-50
2023/05/28 08:56:18;;;;;;;5.27;3.73;;;20.90;46.80;21.60;101113.00;;;;4992756;28;20218;-49
2023/05/28 08:58:44;;;;;;;5.40;3.80;;;20.90;46.00;21.60;101114.00;;;;4976638;28;20691;-49
2023/05/28 09:01:10;;;;;;;5.50;3.90;;;20.90;45.60;21.60;101115.00;;;;5009584;28;20213;-49
2023/05/28 09:03:39;;;;;;;4.27;3.50;;;20.90;45.50;21.60;101101.00;;;;5010816;28;20229;-49
2023/05/28 09:06:04;;;;;;;4.60;3.53;;;20.90;46.10;21.60;101109.00;;;;5010810;28;20183;-49
2023/05/28 09:08:30;;;;;;;6.37;4.00;;;20.90;46.20;21.60;101089.00;;;;5009300;28;20855;-49
2023/05/28 09:10:56;;;;;;;5.50;3.93;;;20.90;46.80;21.60;101104.00;;;;5010631;28;20174;-49
2023/05/28 09:13:22;;;;;;;4.60;3.80;;;20.90;45.60;21.60;101108.00;;;;5010949;28;20615;-50
2023/05/28 09:15:52;;;;;;;5.20;3.93;;;20.90;45.30;21.60;101117.00;;;;5016464;28;20206;-49
2023/05/28 09:18:21;;;;;;;4.20;3.50;;;20.90;45.60;21.60;101091.00;;;;5015650;28;20697;-49
2023/05/28 09:20:48;;;;;;;5.13;3.93;;;20.90;46.30;21.60;101105.00;;;;5005294;28;20666;-50
2023/05/28 09:23:16;;;;;;;6.50;4.23;;;20.90;46.50;21.60;101100.00;;;;5011376;28;20294;-50
2023/05/28 09:25:44;;;;;;;4.87;3.60;;;21.00;46.70;21.60;101083.00;;;;5016006;28;20171;-50
2023/05/28 09:28:12;;;;;;;8.57;3.97;;;21.00;47.40;21.60;101099.00;;;;5010516;28;20198;-50
2023/05/28 09:30:38;;;;;;;5.90;3.77;;;21.00;47.30;21.70;101102.00;;;;5018059;28;20184;-50
2023/05/28 09:33:05;;;;;;;5.60;3.93;;;21.00;46.90;21.70;101089.00;;;;5012612;28;20178;-51
2023/05/28 09:35:31;;;;;;;4.97;3.83;;;21.00;48.00;21.70;101096.00;;;;5011210;28;20257;-48
2023/05/28 09:38:08;;;;;;;4.23;3.83;;;21.00;48.10;21.70;101090.00;;;;5015024;28;20236;-49
2023/05/28 09:40:43;;;;;;;12.87;4.10;;;21.00;47.10;21.70;101101.00;;;;5009764;28;20178;-49
2023/05/28 09:43:10;;;;;;;19.93;4.90;;;21.00;46.70;21.70;101096.00;;;;5009769;28;20255;-49
2023/05/28 09:45:36;;;;;;;20.63;4.33;;;21.00;46.60;21.70;101092.00;;;;5009787;28;20617;-49
2023/05/28 09:48:02;;;;;;;12.70;4.73;;;21.10;47.30;21.80;101099.00;;;;5009832;28;20198;-49
2023/05/28 09:50:28;;;;;;;9.57;4.03;;;21.10;48.10;21.80;101092.00;;;;5010049;28;20273;-49
2023/05/28 09:52:58;;;;;;;9.57;4.20;;;21.10;46.90;21.80;101099.00;;;;5008485;28;21008;-49
2023/05/28 09:55:25;;;;;;;10.13;4.37;;;21.10;46.60;21.80;101090.00;;;;5009883;28;20187;-49
2023/05/28 09:58:05;;;;;;;9.90;4.20;;;21.10;45.40;21.80;101077.00;;;;5009642;28;20186;-49
2023/05/28 10:00:35;;;;;;;13.80;5.03;;;21.10;45.10;21.80;101086.00;;;;5007755;28;20272;-48
2023/05/28 10:03:16;;;;;;;12.87;4.83;;;21.10;45.60;21.80;101089.00;;;;5008749;28;20183;-48
2023/05/28 10:05:44;;;;;;;20.40;5.90;;;21.10;46.00;21.80;101084.00;;;;5009678;28;20177;-48
2023/05/28 10:08:11;;;;;;;21.50;6.00;;;21.10;46.10;21.80;101085.00;;;;5009668;28;20198;-48
2023/05/28 10:10:37;;;;;;;19.63;5.30;;;21.10;46.90;21.90;101076.00;;;;5008016;28;20230;-50
2023/05/28 10:13:03;;;;;;;16.20;5.60;;;21.10;48.70;21.90;101070.00;;;;4976251;28;20208;-50
2023/05/28 10:15:29;;;;;;;18.30;5.80;;;21.20;50.50;21.90;101093.00;;;;5010059;28;20258;-49
2023/05/28 10:17:55;;;;;;;11.93;4.80;;;21.20;50.50;22.00;101085.00;;;;5009474;28;20195;-50
2023/05/28 10:20:20;;;;;;;12.60;5.33;;;21.20;49.70;22.00;101087.00;;;;5010358;28;20645;-48
2023/05/28 10:22:47;;;;;;;12.60;5.03;;;21.30;49.60;22.00;101086.00;;;;5009886;28;20181;-50
2023/05/28 10:25:13;;;;;;;12.23;4.57;;;21.30;50.10;22.00;101076.00;;;;4976290;28;20206;-48
2023/05/28 10:27:45;;;;;;;11.07;4.43;;;21.30;49.50;22.10;101079.00;;;;5008227;28;20199;-49
2023/05/28 10:30:12;;;;;;;7.00;4.03;;;21.30;49.90;22.10;101082.00;;;;5004955;28;20179;-50
2023/05/28 10:32:41;;;;;;;6.40;4.30;;;21.30;48.90;22.10;101080.00;;;;5009693;28;20241;-50
2023/05/28 10:35:10;;;;;;;6.40;4.00;;;21.30;48.70;22.10;101075.00;;;;5009146;28;20183;-49
2023/05/28 10:37:36;;;;;;;8.03;4.00;;;21.30;47.90;22.10;101086.00;;;;5009151;28;20609;-50
2023/05/28 10:40:02;;;;;;;6.70;3.90;;;21.40;47.60;22.20;101081.00;;;;4991484;28;20207;-49
2023/05/28 10:42:27;;;;;;;6.47;4.27;;;21.40;48.50;22.20;101076.00;;;;5009218;28;20660;-49